sensor_id;sensor_type;location;lat;lon;timestamp;temperature;humidity
48162;DHT22;33950;48.154;16.316;2022-12-29T00:01:42;3.90;93.10
48162;DHT22;33950;48.154;16.316;2022-12-29T00:04:33;3.80;93.00
48162;DHT22;33950;48.154;16.316;2022-12-29T00:07:24;3.60;93.20
48162;DHT22;33950;48.154;16.316;2022-12-29T00:10:10;3.60;93.30
48162;DHT22;33950;48.154;16.316;2022-12-29T00:12:57;3.60;93.20
48162;DHT22;33950;48.154;16.316;2022-12-29T00:16:01;3.50;93.30
48162;DHT22;33950;48.154;16.316;2022-12-29T00:18:49;3.50;93.40
48162;DHT22;33950;48.154;16.316;2022-12-29T00:21:35;3.40;93.60
48162;DHT22;33950;48.154;16.316;2022-12-29T00:24:40;3.50;93.60
48162;DHT22;33950;48.154;16.316;2022-12-29T00:27:44;3.50;93.60
48162;DHT22;33950;48.154;16.316;2022-12-29T00:30:49;3.40;93.50
48162;DHT22;33950;48.154;16.316;2022-12-29T00:33:55;3.40;94.00
48162;DHT22;33950;48.154;16.316;2022-12-29T00:37:00;3.40;93.90
48162;DHT22;33950;48.154;16.316;2022-12-29T00:39:46;3.60;93.70
48162;DHT22;33950;48.154;16.316;2022-12-29T00:42:51;3.60;93.50
48162;DHT22;33950;48.154;16.316;2022-12-29T00:45:55;3.70;93.60
48162;DHT22;33950;48.154;16.316;2022-12-29T00:48:42;3.60;93.50
48162;DHT22;33950;48.154;16.316;2022-12-29T00:51:48;3.60;93.40
48162;DHT22;33950;48.154;16.316;2022-12-29T00:54:37;3.50;93.50
48162;DHT22;33950;48.154;16.316;2022-12-29T00:57:24;3.50;93.50
48162;DHT22;33950;48.154;16.316;2022-12-29T01:00:11;3.60;93.40
48162;DHT22;33950;48.154;16.316;2022-12-29T01:02:57;3.50;93.30
48162;DHT22;33950;48.154;16.316;2022-12-29T01:05:44;3.50;93.30
48162;DHT22;33950;48.154;16.316;2022-12-29T01:08:31;3.40;93.30
48162;DHT22;33950;48.154;16.316;2022-12-29T01:11:18;3.30;93.40
48162;DHT22;33950;48.154;16.316;2022-12-29T01:14:04;3.20;93.50
48162;DHT22;33950;48.154;16.316;2022-12-29T01:16:51;3.20;93.70
48162;DHT22;33950;48.154;16.316;2022-12-29T01:19:37;3.20;93.70
48162;DHT22;33950;48.154;16.316;2022-12-29T01:22:23;3.20;93.80
48162;DHT22;33950;48.154;16.316;2022-12-29T01:25:11;3.20;93.70
48162;DHT22;33950;48.154;16.316;2022-12-29T01:27:57;3.30;93.70
48162;DHT22;33950;48.154;16.316;2022-12-29T01:30:43;3.30;93.60
48162;DHT22;33950;48.154;16.316;2022-12-29T01:33:30;3.30;93.50
48162;DHT22;33950;48.154;16.316;2022-12-29T01:36:17;3.40;93.60
48162;DHT22;33950;48.154;16.316;2022-12-29T01:39:03;3.30;93.30
48162;DHT22;33950;48.154;16.316;2022-12-29T01:41:51;3.30;93.40
48162;DHT22;33950;48.154;16.316;2022-12-29T01:44:52;3.30;93.50
48162;DHT22;33950;48.154;16.316;2022-12-29T01:47:42;3.20;93.50
48162;DHT22;33950;48.154;16.316;2022-12-29T01:50:31;3.20;93.50
48162;DHT22;33950;48.154;16.316;2022-12-29T01:53:20;3.20;93.60
48162;DHT22;33950;48.154;16.316;2022-12-29T01:56:09;3.20;93.50
48162;DHT22;33950;48.154;16.316;2022-12-29T01:59:02;3.20;93.40
48162;DHT22;33950;48.154;16.316;2022-12-29T02:01:51;3.20;93.50
48162;DHT22;33950;48.154;16.316;2022-12-29T02:04:40;3.20;93.50
48162;DHT22;33950;48.154;16.316;2022-12-29T02:07:30;3.20;93.50
48162;DHT22;33950;48.154;16.316;2022-12-29T02:10:18;3.20;93.50
48162;DHT22;33950;48.154;16.316;2022-12-29T02:13:05;3.20;93.60
48162;DHT22;33950;48.154;16.316;2022-12-29T02:15:58;3.20;93.30
48162;DHT22;33950;48.154;16.316;2022-12-29T02:18:56;3.10;93.40
48162;DHT22;33950;48.154;16.316;2022-12-29T02:22:00;3.10;93.40
48162;DHT22;33950;48.154;16.316;2022-12-29T02:31:51;3.00;93.80
48162;DHT22;33950;48.154;16.316;2022-12-29T02:34:48;2.90;93.90
48162;DHT22;33950;48.154;16.316;2022-12-29T02:37:42;2.80;94.00
48162;DHT22;33950;48.154;16.316;2022-12-29T02:40:38;2.80;94.10
48162;DHT22;33950;48.154;16.316;2022-12-29T02:43:29;2.80;94.00
48162;DHT22;33950;48.154;16.316;2022-12-29T02:46:21;2.80;94.00
48162;DHT22;33950;48.154;16.316;2022-12-29T02:49:18;2.80;94.20
48162;DHT22;33950;48.154;16.316;2022-12-29T02:52:06;2.90;94.30
48162;DHT22;33950;48.154;16.316;2022-12-29T02:54:53;3.00;94.30
48162;DHT22;33950;48.154;16.316;2022-12-29T02:57:40;3.00;93.90
48162;DHT22;33950;48.154;16.316;2022-12-29T03:00:26;2.90;93.60
48162;DHT22;33950;48.154;16.316;2022-12-29T03:03:19;3.00;93.50
48162;DHT22;33950;48.154;16.316;2022-12-29T03:06:25;3.00;93.40
48162;DHT22;33950;48.154;16.316;2022-12-29T03:09:21;3.00;93.20
48162;DHT22;33950;48.154;16.316;2022-12-29T03:12:18;2.90;93.10
48162;DHT22;33950;48.154;16.316;2022-12-29T03:15:11;2.80;93.30
48162;DHT22;33950;48.154;16.316;2022-12-29T03:18:21;2.80;93.40
48162;DHT22;33950;48.154;16.316;2022-12-29T03:21:11;2.60;93.60
48162;DHT22;33950;48.154;16.316;2022-12-29T03:24:03;2.60;93.80
48162;DHT22;33950;48.154;16.316;2022-12-29T03:26:50;2.60;93.70
48162;DHT22;33950;48.154;16.316;2022-12-29T03:29:42;2.50;93.60
48162;DHT22;33950;48.154;16.316;2022-12-29T03:32:33;2.60;93.70
48162;DHT22;33950;48.154;16.316;2022-12-29T03:35:22;2.70;93.60
48162;DHT22;33950;48.154;16.316;2022-12-29T03:38:14;2.80;93.50
48162;DHT22;33950;48.154;16.316;2022-12-29T03:41:07;2.80;93.50
48162;DHT22;33950;48.154;16.316;2022-12-29T03:43:53;2.90;93.60
48162;DHT22;33950;48.154;16.316;2022-12-29T03:46:39;3.00;93.60
48162;DHT22;33950;48.154;16.316;2022-12-29T03:49:25;2.90;93.60
48162;DHT22;33950;48.154;16.316;2022-12-29T03:52:11;3.00;93.50
48162;DHT22;33950;48.154;16.316;2022-12-29T03:54:57;3.00;93.60
48162;DHT22;33950;48.154;16.316;2022-12-29T03:57:45;3.00;93.60
48162;DHT22;33950;48.154;16.316;2022-12-29T04:00:31;3.00;93.40
48162;DHT22;33950;48.154;16.316;2022-12-29T04:03:17;3.00;93.50
48162;DHT22;33950;48.154;16.316;2022-12-29T04:06:04;3.00;93.30
48162;DHT22;33950;48.154;16.316;2022-12-29T04:08:50;2.80;93.30
48162;DHT22;33950;48.154;16.316;2022-12-29T04:11:36;2.70;93.50
48162;DHT22;33950;48.154;16.316;2022-12-29T04:14:23;2.70;93.40
48162;DHT22;33950;48.154;16.316;2022-12-29T04:17:09;2.70;93.70
48162;DHT22;33950;48.154;16.316;2022-12-29T04:19:55;2.60;93.50
48162;DHT22;33950;48.154;16.316;2022-12-29T04:23:02;2.70;93.90
48162;DHT22;33950;48.154;16.316;2022-12-29T04:25:48;2.70;93.60
48162;DHT22;33950;48.154;16.316;2022-12-29T04:28:34;2.80;93.60
48162;DHT22;33950;48.154;16.316;2022-12-29T04:31:22;2.80;93.30
48162;DHT22;33950;48.154;16.316;2022-12-29T04:34:08;2.90;93.30
48162;DHT22;33950;48.154;16.316;2022-12-29T04:36:54;2.90;93.20
48162;DHT22;33950;48.154;16.316;2022-12-29T04:39:40;3.00;93.10
48162;DHT22;33950;48.154;16.316;2022-12-29T04:42:26;3.00;93.20
48162;DHT22;33950;48.154;16.316;2022-12-29T04:45:12;3.00;92.80
48162;DHT22;33950;48.154;16.316;2022-12-29T04:48:00;3.00;92.70
48162;DHT22;33950;48.154;16.316;2022-12-29T04:50:48;3.00;92.60
48162;DHT22;33950;48.154;16.316;2022-12-29T04:53:34;3.00;92.70
48162;DHT22;33950;48.154;16.316;2022-12-29T04:56:20;3.00;93.10
48162;DHT22;33950;48.154;16.316;2022-12-29T04:59:06;3.00;92.90
48162;DHT22;33950;48.154;16.316;2022-12-29T05:01:52;3.10;92.80
48162;DHT22;33950;48.154;16.316;2022-12-29T05:04:40;3.00;92.80
48162;DHT22;33950;48.154;16.316;2022-12-29T05:07:26;2.90;92.90
48162;DHT22;33950;48.154;16.316;2022-12-29T05:10:12;2.80;93.00
48162;DHT22;33950;48.154;16.316;2022-12-29T05:12:58;2.80;93.10
48162;DHT22;33950;48.154;16.316;2022-12-29T05:15:48;2.80;93.20
48162;DHT22;33950;48.154;16.316;2022-12-29T05:18:35;2.70;93.40
48162;DHT22;33950;48.154;16.316;2022-12-29T05:21:22;2.70;93.50
48162;DHT22;33950;48.154;16.316;2022-12-29T05:24:08;2.70;93.40
48162;DHT22;33950;48.154;16.316;2022-12-29T05:26:54;2.70;93.70
48162;DHT22;33950;48.154;16.316;2022-12-29T05:29:40;2.80;93.50
48162;DHT22;33950;48.154;16.316;2022-12-29T05:32:27;2.70;93.30
48162;DHT22;33950;48.154;16.316;2022-12-29T05:35:13;2.70;93.00
48162;DHT22;33950;48.154;16.316;2022-12-29T05:38:00;2.70;93.10
48162;DHT22;33950;48.154;16.316;2022-12-29T05:40:46;2.60;93.30
48162;DHT22;33950;48.154;16.316;2022-12-29T05:43:32;2.70;93.40
48162;DHT22;33950;48.154;16.316;2022-12-29T05:46:18;2.80;93.10
48162;DHT22;33950;48.154;16.316;2022-12-29T05:49:05;2.80;93.10
48162;DHT22;33950;48.154;16.316;2022-12-29T05:51:51;2.80;93.30
48162;DHT22;33950;48.154;16.316;2022-12-29T05:54:38;2.90;93.30
48162;DHT22;33950;48.154;16.316;2022-12-29T05:57:24;2.90;93.30
48162;DHT22;33950;48.154;16.316;2022-12-29T06:00:11;2.90;93.10
48162;DHT22;33950;48.154;16.316;2022-12-29T06:02:57;2.90;92.80
48162;DHT22;33950;48.154;16.316;2022-12-29T06:05:44;2.80;92.70
48162;DHT22;33950;48.154;16.316;2022-12-29T06:08:31;2.70;92.80
48162;DHT22;33950;48.154;16.316;2022-12-29T06:11:19;2.70;92.90
48162;DHT22;33950;48.154;16.316;2022-12-29T06:14:05;2.70;93.30
48162;DHT22;33950;48.154;16.316;2022-12-29T06:16:51;2.80;93.10
48162;DHT22;33950;48.154;16.316;2022-12-29T06:19:37;2.70;93.10
48162;DHT22;33950;48.154;16.316;2022-12-29T06:22:23;2.80;93.20
48162;DHT22;33950;48.154;16.316;2022-12-29T06:25:09;2.80;93.20
48162;DHT22;33950;48.154;16.316;2022-12-29T06:27:57;2.70;93.10
48162;DHT22;33950;48.154;16.316;2022-12-29T06:30:44;2.70;93.20
48162;DHT22;33950;48.154;16.316;2022-12-29T06:33:31;2.50;93.30
48162;DHT22;33950;48.154;16.316;2022-12-29T06:36:17;2.50;93.20
48162;DHT22;33950;48.154;16.316;2022-12-29T06:39:03;2.50;93.20
48162;DHT22;33950;48.154;16.316;2022-12-29T06:41:52;2.50;93.10
48162;DHT22;33950;48.154;16.316;2022-12-29T06:44:39;2.40;93.00
48162;DHT22;33950;48.154;16.316;2022-12-29T06:47:25;2.20;93.10
48162;DHT22;33950;48.154;16.316;2022-12-29T06:50:12;2.20;93.40
48162;DHT22;33950;48.154;16.316;2022-12-29T06:52:58;2.10;93.10
48162;DHT22;33950;48.154;16.316;2022-12-29T06:55:44;1.90;93.30
48162;DHT22;33950;48.154;16.316;2022-12-29T06:58:30;1.80;93.50
48162;DHT22;33950;48.154;16.316;2022-12-29T07:01:17;1.80;93.50
48162;DHT22;33950;48.154;16.316;2022-12-29T07:04:03;1.70;93.60
48162;DHT22;33950;48.154;16.316;2022-12-29T07:06:49;1.60;93.80
48162;DHT22;33950;48.154;16.316;2022-12-29T07:09:36;1.50;94.00
48162;DHT22;33950;48.154;16.316;2022-12-29T07:12:22;1.40;94.30
48162;DHT22;33950;48.154;16.316;2022-12-29T07:15:08;1.50;94.30
48162;DHT22;33950;48.154;16.316;2022-12-29T07:17:56;1.60;94.40
48162;DHT22;33950;48.154;16.316;2022-12-29T07:20:42;1.70;94.30
48162;DHT22;33950;48.154;16.316;2022-12-29T07:23:28;1.80;94.30
48162;DHT22;33950;48.154;16.316;2022-12-29T07:26:15;1.80;94.30
48162;DHT22;33950;48.154;16.316;2022-12-29T07:29:03;1.80;94.30
48162;DHT22;33950;48.154;16.316;2022-12-29T07:31:50;1.90;94.50
48162;DHT22;33950;48.154;16.316;2022-12-29T07:34:37;1.80;94.60
48162;DHT22;33950;48.154;16.316;2022-12-29T07:37:25;1.80;95.10
48162;DHT22;33950;48.154;16.316;2022-12-29T07:40:11;1.80;95.10
48162;DHT22;33950;48.154;16.316;2022-12-29T07:42:58;1.90;95.10
48162;DHT22;33950;48.154;16.316;2022-12-29T07:45:44;1.90;95.20
48162;DHT22;33950;48.154;16.316;2022-12-29T07:48:30;1.90;95.60
48162;DHT22;33950;48.154;16.316;2022-12-29T07:51:18;1.90;95.70
48162;DHT22;33950;48.154;16.316;2022-12-29T07:54:04;1.90;96.00
48162;DHT22;33950;48.154;16.316;2022-12-29T07:56:50;1.90;96.20
48162;DHT22;33950;48.154;16.316;2022-12-29T07:59:37;1.90;96.50
48162;DHT22;33950;48.154;16.316;2022-12-29T08:02:23;1.90;96.50
48162;DHT22;33950;48.154;16.316;2022-12-29T08:05:09;1.90;96.60
48162;DHT22;33950;48.154;16.316;2022-12-29T08:07:56;1.90;96.80
48162;DHT22;33950;48.154;16.316;2022-12-29T08:10:42;2.00;96.80
48162;DHT22;33950;48.154;16.316;2022-12-29T08:13:29;2.10;96.90
48162;DHT22;33950;48.154;16.316;2022-12-29T08:16:15;2.20;96.90
48162;DHT22;33950;48.154;16.316;2022-12-29T08:19:01;2.30;96.90
48162;DHT22;33950;48.154;16.316;2022-12-29T08:21:47;2.30;97.10
48162;DHT22;33950;48.154;16.316;2022-12-29T08:24:35;2.20;97.60
48162;DHT22;33950;48.154;16.316;2022-12-29T08:27:21;2.30;97.50
48162;DHT22;33950;48.154;16.316;2022-12-29T08:30:09;2.20;97.70
48162;DHT22;33950;48.154;16.316;2022-12-29T08:32:55;2.30;97.90
48162;DHT22;33950;48.154;16.316;2022-12-29T08:35:41;2.30;98.00
48162;DHT22;33950;48.154;16.316;2022-12-29T08:38:28;2.40;98.00
48162;DHT22;33950;48.154;16.316;2022-12-29T08:41:16;2.40;97.90
48162;DHT22;33950;48.154;16.316;2022-12-29T08:44:02;2.30;98.00
48162;DHT22;33950;48.154;16.316;2022-12-29T08:46:48;2.30;98.10
48162;DHT22;33950;48.154;16.316;2022-12-29T08:49:34;2.20;98.20
48162;DHT22;33950;48.154;16.316;2022-12-29T08:52:20;2.20;98.50
48162;DHT22;33950;48.154;16.316;2022-12-29T08:55:07;2.30;98.30
48162;DHT22;33950;48.154;16.316;2022-12-29T08:57:55;2.40;98.50
48162;DHT22;33950;48.154;16.316;2022-12-29T09:00:41;2.40;98.30
48162;DHT22;33950;48.154;16.316;2022-12-29T09:03:27;2.50;98.30
48162;DHT22;33950;48.154;16.316;2022-12-29T09:06:14;2.50;98.10
48162;DHT22;33950;48.154;16.316;2022-12-29T09:09:00;2.50;98.20
48162;DHT22;33950;48.154;16.316;2022-12-29T09:11:46;2.50;98.10
48162;DHT22;33950;48.154;16.316;2022-12-29T09:14:34;2.50;98.20
48162;DHT22;33950;48.154;16.316;2022-12-29T09:17:20;2.60;98.00
48162;DHT22;33950;48.154;16.316;2022-12-29T09:20:25;2.60;97.90
48162;DHT22;33950;48.154;16.316;2022-12-29T09:23:11;2.50;97.70
48162;DHT22;33950;48.154;16.316;2022-12-29T09:25:57;2.50;97.60
48162;DHT22;33950;48.154;16.316;2022-12-29T09:28:43;2.30;97.20
48162;DHT22;33950;48.154;16.316;2022-12-29T09:31:31;2.20;97.30
48162;DHT22;33950;48.154;16.316;2022-12-29T09:34:17;2.20;97.40
48162;DHT22;33950;48.154;16.316;2022-12-29T09:37:03;2.20;97.70
48162;DHT22;33950;48.154;16.316;2022-12-29T09:39:49;2.10;97.60
48162;DHT22;33950;48.154;16.316;2022-12-29T09:42:40;2.00;97.90
48162;DHT22;33950;48.154;16.316;2022-12-29T09:45:34;2.00;97.90
48162;DHT22;33950;48.154;16.316;2022-12-29T09:48:27;2.00;98.10
48162;DHT22;33950;48.154;16.316;2022-12-29T09:51:15;1.90;98.50
48162;DHT22;33950;48.154;16.316;2022-12-29T09:54:11;2.00;98.40
48162;DHT22;33950;48.154;16.316;2022-12-29T09:57:03;2.00;98.40
48162;DHT22;33950;48.154;16.316;2022-12-29T09:59:54;2.00;98.60
48162;DHT22;33950;48.154;16.316;2022-12-29T10:02:43;2.10;98.70
48162;DHT22;33950;48.154;16.316;2022-12-29T10:05:37;2.10;98.80
48162;DHT22;33950;48.154;16.316;2022-12-29T10:08:30;2.20;98.90
48162;DHT22;33950;48.154;16.316;2022-12-29T10:11:29;2.20;98.90
48162;DHT22;33950;48.154;16.316;2022-12-29T10:14:33;2.20;99.00
48162;DHT22;33950;48.154;16.316;2022-12-29T10:17:24;2.30;99.00
48162;DHT22;33950;48.154;16.316;2022-12-29T10:20:28;2.30;99.20
48162;DHT22;33950;48.154;16.316;2022-12-29T10:23:26;2.40;99.40
48162;DHT22;33950;48.154;16.316;2022-12-29T10:26:16;2.50;99.50
48162;DHT22;33950;48.154;16.316;2022-12-29T10:29:04;2.50;99.40
48162;DHT22;33950;48.154;16.316;2022-12-29T10:31:58;2.40;99.60
48162;DHT22;33950;48.154;16.316;2022-12-29T10:34:47;2.50;99.70
48162;DHT22;33950;48.154;16.316;2022-12-29T10:37:40;2.50;99.80
48162;DHT22;33950;48.154;16.316;2022-12-29T10:40:36;2.50;99.90
48162;DHT22;33950;48.154;16.316;2022-12-29T10:43:26;2.60;99.80
48162;DHT22;33950;48.154;16.316;2022-12-29T10:46:15;2.60;99.90
48162;DHT22;33950;48.154;16.316;2022-12-29T10:49:04;2.60;99.90
48162;DHT22;33950;48.154;16.316;2022-12-29T10:51:54;2.70;99.90
48162;DHT22;33950;48.154;16.316;2022-12-29T10:54:45;2.70;99.90
48162;DHT22;33950;48.154;16.316;2022-12-29T10:57:36;2.80;99.80
48162;DHT22;33950;48.154;16.316;2022-12-29T11:00:23;2.70;99.80
48162;DHT22;33950;48.154;16.316;2022-12-29T11:06:31;2.80;99.80
48162;DHT22;33950;48.154;16.316;2022-12-29T11:09:24;2.90;99.70
48162;DHT22;33950;48.154;16.316;2022-12-29T11:12:20;2.80;99.70
48162;DHT22;33950;48.154;16.316;2022-12-29T11:15:15;2.80;99.70
48162;DHT22;33950;48.154;16.316;2022-12-29T11:18:01;2.70;99.90
48162;DHT22;33950;48.154;16.316;2022-12-29T11:20:48;2.60;99.90
48162;DHT22;33950;48.154;16.316;2022-12-29T11:23:38;2.60;99.90
48162;DHT22;33950;48.154;16.316;2022-12-29T11:26:24;2.60;99.90
48162;DHT22;33950;48.154;16.316;2022-12-29T11:29:21;2.70;99.90
48162;DHT22;33950;48.154;16.316;2022-12-29T11:32:13;2.70;99.90
48162;DHT22;33950;48.154;16.316;2022-12-29T11:35:04;2.70;99.90
48162;DHT22;33950;48.154;16.316;2022-12-29T11:38:01;2.70;99.90
48162;DHT22;33950;48.154;16.316;2022-12-29T11:40:58;2.80;99.90
48162;DHT22;33950;48.154;16.316;2022-12-29T11:43:44;2.80;99.90
48162;DHT22;33950;48.154;16.316;2022-12-29T11:46:35;2.70;99.90
48162;DHT22;33950;48.154;16.316;2022-12-29T11:49:26;2.80;99.90
48162;DHT22;33950;48.154;16.316;2022-12-29T11:52:12;2.70;99.90
48162;DHT22;33950;48.154;16.316;2022-12-29T11:54:59;2.70;99.90
48162;DHT22;33950;48.154;16.316;2022-12-29T11:57:47;2.70;99.90
48162;DHT22;33950;48.154;16.316;2022-12-29T12:00:36;2.70;99.90
48162;DHT22;33950;48.154;16.316;2022-12-29T12:03:28;2.70;99.90
48162;DHT22;33950;48.154;16.316;2022-12-29T12:06:20;2.70;99.90
48162;DHT22;33950;48.154;16.316;2022-12-29T12:09:25;2.80;99.90
48162;DHT22;33950;48.154;16.316;2022-12-29T12:12:20;2.90;99.90
48162;DHT22;33950;48.154;16.316;2022-12-29T12:15:15;2.80;99.90
48162;DHT22;33950;48.154;16.316;2022-12-29T12:18:08;2.80;99.90
48162;DHT22;33950;48.154;16.316;2022-12-29T12:20:58;2.70;99.90
48162;DHT22;33950;48.154;16.316;2022-12-29T12:24:15;2.80;99.90
48162;DHT22;33950;48.154;16.316;2022-12-29T12:27:11;2.80;99.90
48162;DHT22;33950;48.154;16.316;2022-12-29T12:30:02;2.80;99.90
48162;DHT22;33950;48.154;16.316;2022-12-29T12:32:54;3.00;99.90
48162;DHT22;33950;48.154;16.316;2022-12-29T12:35:46;3.00;99.90
48162;DHT22;33950;48.154;16.316;2022-12-29T12:38:43;3.00;99.90
48162;DHT22;33950;48.154;16.316;2022-12-29T12:41:43;3.00;99.90
48162;DHT22;33950;48.154;16.316;2022-12-29T12:44:39;3.00;99.90
48162;DHT22;33950;48.154;16.316;2022-12-29T12:47:49;3.10;99.90
48162;DHT22;33950;48.154;16.316;2022-12-29T12:50:47;3.10;99.90
48162;DHT22;33950;48.154;16.316;2022-12-29T12:53:44;3.00;99.90
48162;DHT22;33950;48.154;16.316;2022-12-29T12:56:44;3.00;99.90
48162;DHT22;33950;48.154;16.316;2022-12-29T12:59:42;3.10;99.90
48162;DHT22;33950;48.154;16.316;2022-12-29T13:02:40;3.20;99.90
48162;DHT22;33950;48.154;16.316;2022-12-29T13:05:41;3.30;99.90
48162;DHT22;33950;48.154;16.316;2022-12-29T13:08:39;3.40;99.90
48162;DHT22;33950;48.154;16.316;2022-12-29T13:11:40;3.40;99.90
48162;DHT22;33950;48.154;16.316;2022-12-29T13:14:40;3.30;99.90
48162;DHT22;33950;48.154;16.316;2022-12-29T13:17:32;3.30;99.90
48162;DHT22;33950;48.154;16.316;2022-12-29T13:20:29;3.40;99.90
48162;DHT22;33950;48.154;16.316;2022-12-29T13:23:22;3.30;99.90
48162;DHT22;33950;48.154;16.316;2022-12-29T13:26:16;3.30;99.90
48162;DHT22;33950;48.154;16.316;2022-12-29T13:29:14;3.30;99.90
48162;DHT22;33950;48.154;16.316;2022-12-29T13:32:17;3.30;99.90
48162;DHT22;33950;48.154;16.316;2022-12-29T13:35:18;3.30;99.90
48162;DHT22;33950;48.154;16.316;2022-12-29T13:38:12;3.30;99.90
48162;DHT22;33950;48.154;16.316;2022-12-29T13:41:02;3.30;99.90
48162;DHT22;33950;48.154;16.316;2022-12-29T13:43:50;3.40;99.90
48162;DHT22;33950;48.154;16.316;2022-12-29T13:46:41;3.40;99.90
48162;DHT22;33950;48.154;16.316;2022-12-29T13:49:29;3.40;99.90
48162;DHT22;33950;48.154;16.316;2022-12-29T13:52:20;3.40;99.90
48162;DHT22;33950;48.154;16.316;2022-12-29T13:55:21;3.40;99.90
48162;DHT22;33950;48.154;16.316;2022-12-29T13:58:13;3.50;99.90
48162;DHT22;33950;48.154;16.316;2022-12-29T14:01:04;3.40;99.90
48162;DHT22;33950;48.154;16.316;2022-12-29T14:03:57;3.40;99.90
48162;DHT22;33950;48.154;16.316;2022-12-29T14:06:44;3.40;99.90
48162;DHT22;33950;48.154;16.316;2022-12-29T14:09:42;3.50;99.90
48162;DHT22;33950;48.154;16.316;2022-12-29T14:12:32;3.60;99.90
48162;DHT22;33950;48.154;16.316;2022-12-29T14:15:22;3.60;99.90
48162;DHT22;33950;48.154;16.316;2022-12-29T14:18:13;3.70;99.90
48162;DHT22;33950;48.154;16.316;2022-12-29T14:21:04;3.70;99.90
48162;DHT22;33950;48.154;16.316;2022-12-29T14:23:55;3.70;99.90
48162;DHT22;33950;48.154;16.316;2022-12-29T14:26:46;3.80;99.90
48162;DHT22;33950;48.154;16.316;2022-12-29T14:29:46;3.70;99.90
48162;DHT22;33950;48.154;16.316;2022-12-29T14:32:38;3.60;99.90
48162;DHT22;33950;48.154;16.316;2022-12-29T14:35:38;3.50;99.90
48162;DHT22;33950;48.154;16.316;2022-12-29T14:38:30;3.50;99.90
48162;DHT22;33950;48.154;16.316;2022-12-29T14:41:25;3.50;99.90
48162;DHT22;33950;48.154;16.316;2022-12-29T14:44:18;3.50;99.90
48162;DHT22;33950;48.154;16.316;2022-12-29T14:47:06;3.50;99.90
48162;DHT22;33950;48.154;16.316;2022-12-29T14:49:54;3.50;99.90
48162;DHT22;33950;48.154;16.316;2022-12-29T14:52:46;3.50;99.90
48162;DHT22;33950;48.154;16.316;2022-12-29T14:55:39;3.40;99.90
48162;DHT22;33950;48.154;16.316;2022-12-29T14:58:28;3.50;99.90
48162;DHT22;33950;48.154;16.316;2022-12-29T15:01:20;3.50;99.90
48162;DHT22;33950;48.154;16.316;2022-12-29T15:04:17;3.60;99.90
48162;DHT22;33950;48.154;16.316;2022-12-29T15:07:07;3.60;99.90
48162;DHT22;33950;48.154;16.316;2022-12-29T15:09:58;3.60;99.90
48162;DHT22;33950;48.154;16.316;2022-12-29T15:12:51;3.60;99.90
48162;DHT22;33950;48.154;16.316;2022-12-29T15:15:38;3.70;99.90
48162;DHT22;33950;48.154;16.316;2022-12-29T15:18:26;3.70;99.90
48162;DHT22;33950;48.154;16.316;2022-12-29T15:21:14;3.60;99.90
48162;DHT22;33950;48.154;16.316;2022-12-29T15:24:01;3.70;99.90
48162;DHT22;33950;48.154;16.316;2022-12-29T15:26:51;3.70;99.90
48162;DHT22;33950;48.154;16.316;2022-12-29T15:29:40;3.70;99.90
48162;DHT22;33950;48.154;16.316;2022-12-29T15:32:28;3.60;99.90
48162;DHT22;33950;48.154;16.316;2022-12-29T15:35:29;3.70;99.90
48162;DHT22;33950;48.154;16.316;2022-12-29T15:38:21;3.70;99.90
48162;DHT22;33950;48.154;16.316;2022-12-29T15:41:20;3.80;99.90
48162;DHT22;33950;48.154;16.316;2022-12-29T15:44:16;3.80;99.90
48162;DHT22;33950;48.154;16.316;2022-12-29T15:47:06;3.80;99.90
48162;DHT22;33950;48.154;16.316;2022-12-29T15:49:53;3.80;99.90
48162;DHT22;33950;48.154;16.316;2022-12-29T15:52:43;3.90;99.90
48162;DHT22;33950;48.154;16.316;2022-12-29T15:55:32;3.90;99.90
48162;DHT22;33950;48.154;16.316;2022-12-29T15:58:21;3.90;99.90
48162;DHT22;33950;48.154;16.316;2022-12-29T16:01:17;3.90;99.90
48162;DHT22;33950;48.154;16.316;2022-12-29T16:04:07;3.90;99.90
48162;DHT22;33950;48.154;16.316;2022-12-29T16:06:56;3.90;99.90
48162;DHT22;33950;48.154;16.316;2022-12-29T16:09:43;3.80;99.90
48162;DHT22;33950;48.154;16.316;2022-12-29T16:12:32;3.80;99.90
48162;DHT22;33950;48.154;16.316;2022-12-29T16:15:19;3.80;99.90
48162;DHT22;33950;48.154;16.316;2022-12-29T16:18:05;3.80;99.90
48162;DHT22;33950;48.154;16.316;2022-12-29T16:20:53;3.70;99.90
48162;DHT22;33950;48.154;16.316;2022-12-29T16:23:41;3.80;99.90
48162;DHT22;33950;48.154;16.316;2022-12-29T16:26:30;3.80;99.90
48162;DHT22;33950;48.154;16.316;2022-12-29T16:29:16;3.90;99.90
48162;DHT22;33950;48.154;16.316;2022-12-29T16:32:24;3.90;99.90
48162;DHT22;33950;48.154;16.316;2022-12-29T16:35:13;3.80;99.90
48162;DHT22;33950;48.154;16.316;2022-12-29T16:38:13;3.80;99.90
48162;DHT22;33950;48.154;16.316;2022-12-29T16:41:01;3.80;99.90
48162;DHT22;33950;48.154;16.316;2022-12-29T16:43:48;3.80;99.90
48162;DHT22;33950;48.154;16.316;2022-12-29T16:50:11;3.80;99.90
48162;DHT22;33950;48.154;16.316;2022-12-29T16:52:58;3.80;99.60
48162;DHT22;33950;48.154;16.316;2022-12-29T16:55:46;3.80;99.60
48162;DHT22;33950;48.154;16.316;2022-12-29T16:58:33;3.80;99.50
48162;DHT22;33950;48.154;16.316;2022-12-29T17:01:21;3.80;99.50
48162;DHT22;33950;48.154;16.316;2022-12-29T17:04:09;3.80;99.50
48162;DHT22;33950;48.154;16.316;2022-12-29T17:06:56;3.70;99.70
48162;DHT22;33950;48.154;16.316;2022-12-29T17:09:42;3.80;99.50
48162;DHT22;33950;48.154;16.316;2022-12-29T17:12:29;3.70;99.30
48162;DHT22;33950;48.154;16.316;2022-12-29T17:15:23;3.70;99.40
48162;DHT22;33950;48.154;16.316;2022-12-29T17:18:10;3.70;99.50
48162;DHT22;33950;48.154;16.316;2022-12-29T17:20:59;3.60;99.50
48162;DHT22;33950;48.154;16.316;2022-12-29T17:23:45;3.60;99.60
48162;DHT22;33950;48.154;16.316;2022-12-29T17:26:31;3.50;99.50
48162;DHT22;33950;48.154;16.316;2022-12-29T17:29:21;3.40;99.60
48162;DHT22;33950;48.154;16.316;2022-12-29T17:32:12;3.40;99.70
48162;DHT22;33950;48.154;16.316;2022-12-29T17:34:59;3.40;99.80
48162;DHT22;33950;48.154;16.316;2022-12-29T17:37:47;3.40;99.90
48162;DHT22;33950;48.154;16.316;2022-12-29T17:40:35;3.50;99.80
48162;DHT22;33950;48.154;16.316;2022-12-29T17:43:21;3.50;99.60
48162;DHT22;33950;48.154;16.316;2022-12-29T17:46:07;3.50;99.40
48162;DHT22;33950;48.154;16.316;2022-12-29T17:48:53;3.40;99.50
48162;DHT22;33950;48.154;16.316;2022-12-29T17:51:40;3.50;99.60
48162;DHT22;33950;48.154;16.316;2022-12-29T17:54:28;3.40;99.40
48162;DHT22;33950;48.154;16.316;2022-12-29T17:57:15;3.30;99.70
48162;DHT22;33950;48.154;16.316;2022-12-29T18:00:03;3.40;99.70
48162;DHT22;33950;48.154;16.316;2022-12-29T18:02:49;3.40;99.60
48162;DHT22;33950;48.154;16.316;2022-12-29T18:05:36;3.40;99.50
48162;DHT22;33950;48.154;16.316;2022-12-29T18:08:22;3.40;99.60